Time;durP1;ratioP1;P1;durP2;ratioP2;P2;SDS_P1;SDS_P2;PMS_P1;PMS_P2;Temp;Humidity;BMP_temperature;BMP_pressure;BME280_temperature;BME280_humidity;BME280_pressure;Samples;Min_cycle;Max_cycle;Signal;HPM_P1;HPM_P2
2023/01/20 00:01:13;;;;;;;13.83;9.37;;;;;;;;;;5062480;28;20433;-67
2023/01/20 00:03:40;;;;;;;11.27;10.00;;;;;;;;;;5067910;28;20436;-65
2023/01/20 00:06:07;;;;;;;17.77;12.70;;;;;;;;;;5069696;28;20463;-67
2023/01/20 00:08:33;;;;;;;15.03;9.60;;;;;;;;;;5064544;28;20450;-66
2023/01/20 00:11:02;;;;;;;17.73;10.73;;;;;;;;;;5068558;28;20472;-65
2023/01/20 00:13:27;;;;;;;15.30;10.30;;;;;;;;;;5061218;28;20190;-66
2023/01/20 00:15:53;;;;;;;13.40;9.70;;;;;;;;;;5065050;28;20470;-66
2023/01/20 00:18:18;;;;;;;13.63;10.27;;;;;;;;;;5069686;28;20182;-66
2023/01/20 00:20:43;;;;;;;14.93;9.80;;;;;;;;;;5069048;28;20174;-67
2023/01/20 00:23:09;;;;;;;13.67;11.37;;;;;;;;;;5056159;28;20517;-66
2023/01/20 00:25:35;;;;;;;12.20;10.50;;;;;;;;;;5058028;28;20177;-66
2023/01/20 00:28:00;;;;;;;11.60;9.07;;;;;;;;;;5066464;28;20660;-66
2023/01/20 00:30:26;;;;;;;14.70;10.63;;;;;;;;;;5069432;28;20468;-66
2023/01/20 00:32:51;;;;;;;12.93;9.60;;;;;;;;;;5055315;28;20178;-66
2023/01/20 00:35:17;;;;;;;13.03;10.10;;;;;;;;;;5066643;28;20188;-66
2023/01/20 00:37:42;;;;;;;13.43;10.60;;;;;;;;;;5062031;28;20198;-66
2023/01/20 00:40:09;;;;;;;12.40;10.00;;;;;;;;;;5064203;28;20597;-66
2023/01/20 00:42:34;;;;;;;15.63;12.00;;;;;;;;;;5064970;28;20181;-66
2023/01/20 00:45:00;;;;;;;10.80;9.57;;;;;;;;;;5065561;28;20429;-66
2023/01/20 00:47:25;;;;;;;13.80;9.90;;;;;;;;;;5061583;28;20217;-66
2023/01/20 00:49:50;;;;;;;12.27;10.37;;;;;;;;;;5067576;28;20251;-67
2023/01/20 00:52:17;;;;;;;18.00;10.10;;;;;;;;;;5049945;28;20175;-66
2023/01/20 00:54:43;;;;;;;13.57;10.87;;;;;;;;;;5063780;28;20213;-66
2023/01/20 00:57:08;;;;;;;14.70;11.00;;;;;;;;;;5068707;28;20476;-67
2023/01/20 00:59:34;;;;;;;13.20;9.70;;;;;;;;;;5069948;28;20245;-66
2023/01/20 01:01:59;;;;;;;13.40;9.20;;;;;;;;;;5057735;28;20191;-66
2023/01/20 01:04:24;;;;;;;15.83;10.20;;;;;;;;;;5062576;28;20185;-67
2023/01/20 01:06:50;;;;;;;15.90;11.10;;;;;;;;;;5068798;28;20225;-66
2023/01/20 01:09:15;;;;;;;15.07;10.57;;;;;;;;;;5061146;28;20187;-66
2023/01/20 01:11:41;;;;;;;12.63;9.93;;;;;;;;;;5050569;28;20207;-68
2023/01/20 01:14:06;;;;;;;11.50;10.20;;;;;;;;;;5062234;28;20228;-66
2023/01/20 01:16:32;;;;;;;15.93;10.20;;;;;;;;;;5067731;28;20251;-66
2023/01/20 01:18:57;;;;;;;13.03;9.83;;;;;;;;;;5069186;28;20186;-66
2023/01/20 01:21:22;;;;;;;13.80;10.30;;;;;;;;;;5052946;28;20179;-66
2023/01/20 01:23:50;;;;;;;13.83;10.77;;;;;;;;;;5064599;28;20186;-65
2023/01/20 01:26:16;;;;;;;11.97;10.13;;;;;;;;;;5072282;28;20781;-66
2023/01/20 01:28:41;;;;;;;14.20;10.97;;;;;;;;;;5069529;28;20436;-66
2023/01/20 01:31:07;;;;;;;17.57;10.03;;;;;;;;;;5066264;28;20236;-66
2023/01/20 01:33:33;;;;;;;13.37;9.90;;;;;;;;;;5062114;28;20223;-66
2023/01/20 01:36:01;;;;;;;16.40;11.50;;;;;;;;;;5067711;28;20202;-65
2023/01/20 01:38:28;;;;;;;13.80;10.07;;;;;;;;;;5072025;28;20428;-66
2023/01/20 01:40:54;;;;;;;15.53;10.20;;;;;;;;;;5072104;28;20519;-67
2023/01/20 01:43:32;;;;;;;12.77;10.60;;;;;;;;;;5069230;28;20432;-67
2023/01/20 01:45:58;;;;;;;12.47;9.63;;;;;;;;;;5072662;28;20547;-66
2023/01/20 01:48:35;;;;;;;13.43;9.80;;;;;;;;;;5062820;28;21148;-65
2023/01/20 01:51:08;;;;;;;13.40;9.67;;;;;;;;;;5072192;28;20459;-67
2023/01/20 01:53:40;;;;;;;12.10;10.33;;;;;;;;;;5068460;28;20434;-65
2023/01/20 01:56:07;;;;;;;13.33;8.80;;;;;;;;;;5065121;28;20460;-66
2023/01/20 01:58:36;;;;;;;10.77;9.37;;;;;;;;;;5071263;28;20960;-68
2023/01/20 02:01:01;;;;;;;13.70;10.80;;;;;;;;;;5056456;28;20482;-65
2023/01/20 02:03:36;;;;;;;16.57;10.67;;;;;;;;;;5062352;28;20428;-67
2023/01/20 02:06:02;;;;;;;13.77;10.60;;;;;;;;;;5067012;28;20208;-67
2023/01/20 02:08:27;;;;;;;20.90;11.03;;;;;;;;;;5064260;28;20428;-67
2023/01/20 02:10:52;;;;;;;17.90;10.83;;;;;;;;;;5071346;28;20460;-67
2023/01/20 02:13:18;;;;;;;13.57;9.70;;;;;;;;;;5062144;28;20186;-67
2023/01/20 02:16:05;;;;;;;13.10;10.23;;;;;;;;;;5065156;28;20210;-67
2023/01/20 02:18:30;;;;;;;11.47;9.47;;;;;;;;;;5054818;28;20678;-67
2023/01/20 02:21:50;;;;;;;13.50;9.37;;;;;;;;;;5060808;28;20437;-67
2023/01/20 02:24:30;;;;;;;14.17;10.20;;;;;;;;;;5000222;28;20199;-67
2023/01/20 02:27:18;;;;;;;10.70;9.00;;;;;;;;;;5060651;28;20462;-66
2023/01/20 02:30:05;;;;;;;13.57;9.53;;;;;;;;;;5066351;28;20522;-65
2023/01/20 02:32:44;;;;;;;11.10;8.70;;;;;;;;;;5065764;28;21062;-66
2023/01/20 02:35:20;;;;;;;12.10;9.30;;;;;;;;;;5051752;28;20511;-66
2023/01/20 02:37:53;;;;;;;12.80;10.23;;;;;;;;;;5051862;28;20468;-66
2023/01/20 02:40:27;;;;;;;14.40;9.50;;;;;;;;;;5061848;28;20439;-66
2023/01/20 02:43:06;;;;;;;15.83;11.00;;;;;;;;;;5054714;28;20952;-68
2023/01/20 02:45:31;;;;;;;18.80;8.83;;;;;;;;;;5051627;28;20440;-65
2023/01/20 02:48:11;;;;;;;16.77;9.27;;;;;;;;;;5069554;28;21071;-66
2023/01/20 02:50:49;;;;;;;18.83;10.20;;;;;;;;;;5060008;28;20287;-66
2023/01/20 02:53:16;;;;;;;11.70;8.83;;;;;;;;;;5067384;28;20528;-67
2023/01/20 02:55:47;;;;;;;13.73;8.63;;;;;;;;;;5070547;28;20951;-67
2023/01/20 02:58:25;;;;;;;13.53;8.10;;;;;;;;;;5058998;28;20519;-66
2023/01/20 03:01:13;;;;;;;15.67;9.13;;;;;;;;;;5067952;28;20592;-67
2023/01/20 03:03:44;;;;;;;11.83;8.57;;;;;;;;;;5058519;28;20879;-68
2023/01/20 03:06:17;;;;;;;12.97;7.93;;;;;;;;;;5057324;28;20456;-67
2023/01/20 03:08:43;;;;;;;12.10;8.83;;;;;;;;;;5069906;28;20510;-67
2023/01/20 03:11:09;;;;;;;12.93;8.50;;;;;;;;;;5070074;28;20609;-67
2023/01/20 03:13:40;;;;;;;10.60;8.23;;;;;;;;;;5066034;28;20527;-67
2023/01/20 03:16:13;;;;;;;15.10;8.47;;;;;;;;;;5050683;28;20206;-67
2023/01/20 03:18:39;;;;;;;7.90;7.10;;;;;;;;;;5059098;28;20960;-66
2023/01/20 03:21:07;;;;;;;12.10;7.70;;;;;;;;;;5068657;28;20428;-66
2023/01/20 03:23:36;;;;;;;12.43;7.40;;;;;;;;;;5051017;28;20198;-66
2023/01/20 03:26:05;;;;;;;10.53;8.30;;;;;;;;;;5050801;28;20792;-66
2023/01/20 03:28:31;;;;;;;10.57;7.90;;;;;;;;;;5059318;28;20795;-66
2023/01/20 03:30:57;;;;;;;11.53;8.00;;;;;;;;;;5066327;28;20463;-65
2023/01/20 03:33:23;;;;;;;10.53;7.30;;;;;;;;;;5069947;28;20368;-66
2023/01/20 03:35:50;;;;;;;11.73;8.67;;;;;;;;;;5054183;28;20548;-66
2023/01/20 03:38:15;;;;;;;12.30;8.60;;;;;;;;;;5051270;28;20437;-67
2023/01/20 03:40:50;;;;;;;8.73;7.60;;;;;;;;;;5062852;28;20804;-67
2023/01/20 03:43:31;;;;;;;9.70;7.70;;;;;;;;;;5069735;28;20181;-66
2023/01/20 03:46:05;;;;;;;11.00;7.53;;;;;;;;;;5050840;28;20460;-67
2023/01/20 03:48:40;;;;;;;10.97;7.57;;;;;;;;;;5061076;28;20514;-65
2023/01/20 03:51:26;;;;;;;9.20;7.10;;;;;;;;;;5055576;28;20510;-67
2023/01/20 03:54:01;;;;;;;8.50;6.80;;;;;;;;;;5058506;28;20445;-67
2023/01/20 03:56:36;;;;;;;8.37;7.57;;;;;;;;;;5050428;28;20590;-67
2023/01/20 03:59:03;;;;;;;9.60;7.63;;;;;;;;;;5067656;28;20763;-66
2023/01/20 04:01:34;;;;;;;11.77;7.63;;;;;;;;;;5051261;28;20956;-66
2023/01/20 04:04:02;;;;;;;11.23;8.50;;;;;;;;;;5062292;28;20541;-67
2023/01/20 04:06:29;;;;;;;10.80;9.10;;;;;;;;;;5064012;28;20945;-67
2023/01/20 04:09:00;;;;;;;9.07;8.03;;;;;;;;;;5068962;28;20924;-67
2023/01/20 04:11:26;;;;;;;13.70;8.70;;;;;;;;;;5057153;28;20772;-67
2023/01/20 04:13:52;;;;;;;16.73;8.80;;;;;;;;;;5068086;28;20867;-68
2023/01/20 04:16:19;;;;;;;10.17;9.17;;;;;;;;;;5067000;28;20483;-67
2023/01/20 04:18:48;;;;;;;9.93;7.83;;;;;;;;;;5051958;28;20182;-66
2023/01/20 04:21:20;;;;;;;10.40;8.87;;;;;;;;;;5056144;28;20455;-66
2023/01/20 04:23:51;;;;;;;15.87;9.20;;;;;;;;;;5070010;28;20435;-67
2023/01/20 04:26:17;;;;;;;15.30;9.00;;;;;;;;;;5059381;28;20799;-68
2023/01/20 04:28:42;;;;;;;14.10;9.70;;;;;;;;;;5063541;28;20436;-66
2023/01/20 04:31:08;;;;;;;14.47;8.77;;;;;;;;;;5056808;28;20206;-65
2023/01/20 04:33:37;;;;;;;11.93;8.10;;;;;;;;;;5061323;28;20216;-66
2023/01/20 04:36:02;;;;;;;11.13;8.60;;;;;;;;;;5050069;28;20202;-66
2023/01/20 04:38:28;;;;;;;20.67;10.00;;;;;;;;;;5049877;28;20428;-68
2023/01/20 04:40:53;;;;;;;15.43;8.63;;;;;;;;;;5057344;28;20261;-66
2023/01/20 04:43:19;;;;;;;9.30;8.00;;;;;;;;;;5059822;28;20182;-66
2023/01/20 04:45:44;;;;;;;16.87;9.00;;;;;;;;;;5063641;28;20463;-67
2023/01/20 04:48:09;;;;;;;18.37;10.63;;;;;;;;;;5060575;28;20181;-67
2023/01/20 04:50:39;;;;;;;9.93;8.27;;;;;;;;;;5069051;28;20198;-66
2023/01/20 04:53:05;;;;;;;10.97;7.67;;;;;;;;;;5069298;28;20214;-66
2023/01/20 04:55:31;;;;;;;15.10;9.30;;;;;;;;;;5064203;28;20467;-67
2023/01/20 04:57:57;;;;;;;16.70;9.70;;;;;;;;;;5065126;28;20222;-66
2023/01/20 05:00:22;;;;;;;13.17;8.13;;;;;;;;;;5072154;28;20432;-66
2023/01/20 05:02:48;;;;;;;10.53;8.77;;;;;;;;;;5073902;28;20174;-66
2023/01/20 05:05:13;;;;;;;10.90;8.33;;;;;;;;;;5075999;28;20179;-66
2023/01/20 05:07:39;;;;;;;10.40;8.17;;;;;;;;;;5059041;28;20201;-67
2023/01/20 05:10:05;;;;;;;9.53;7.87;;;;;;;;;;5066230;28;20698;-66
2023/01/20 05:12:30;;;;;;;10.17;7.90;;;;;;;;;;5074119;28;20175;-67
2023/01/20 05:14:56;;;;;;;8.90;7.50;;;;;;;;;;5076465;28;20440;-66
2023/01/20 05:17:21;;;;;;;10.80;8.00;;;;;;;;;;5072566;28;20291;-66
2023/01/20 05:19:46;;;;;;;8.30;7.27;;;;;;;;;;5065195;28;20239;-66
2023/01/20 05:22:12;;;;;;;12.73;8.30;;;;;;;;;;5068962;28;20275;-66
2023/01/20 05:24:37;;;;;;;9.50;7.90;;;;;;;;;;5067234;28;20682;-66
2023/01/20 05:27:03;;;;;;;11.07;8.00;;;;;;;;;;5064855;28;20206;-66
2023/01/20 05:29:28;;;;;;;13.20;7.30;;;;;;;;;;5072037;28;20174;-67
2023/01/20 05:31:54;;;;;;;8.40;6.50;;;;;;;;;;5072186;28;20673;-66
2023/01/20 05:34:20;;;;;;;8.77;7.63;;;;;;;;;;5063635;28;20192;-67
2023/01/20 05:36:45;;;;;;;9.27;6.33;;;;;;;;;;5071206;28;20240;-67
2023/01/20 05:39:10;;;;;;;7.37;6.67;;;;;;;;;;5063280;28;20265;-67
2023/01/20 05:41:36;;;;;;;9.57;7.20;;;;;;;;;;5070507;28;20209;-67
2023/01/20 05:44:01;;;;;;;10.83;7.90;;;;;;;;;;5056955;28;20182;-67
2023/01/20 05:46:26;;;;;;;12.30;8.00;;;;;;;;;;5069861;28;20201;-67
2023/01/20 05:48:52;;;;;;;13.27;8.57;;;;;;;;;;5071643;28;20174;-66
2023/01/20 05:51:18;;;;;;;11.97;7.40;;;;;;;;;;5057150;28;20246;-66
2023/01/20 05:53:43;;;;;;;9.40;7.30;;;;;;;;;;5065437;28;20178;-65
2023/01/20 05:56:11;;;;;;;15.83;8.43;;;;;;;;;;5060284;28;20202;-67
2023/01/20 05:58:37;;;;;;;8.83;7.10;;;;;;;;;;5072254;28;20315;-66
2023/01/20 06:01:07;;;;;;;10.77;8.87;;;;;;;;;;5058082;28;20513;-66
2023/01/20 06:03:32;;;;;;;12.60;7.87;;;;;;;;;;5066112;28;20174;-66
2023/01/20 06:05:59;;;;;;;13.30;9.07;;;;;;;;;;5069357;28;20455;-67
2023/01/20 06:08:25;;;;;;;27.00;10.43;;;;;;;;;;5066265;28;20273;-67
2023/01/20 06:10:52;;;;;;;12.77;7.97;;;;;;;;;;5067546;28;20535;-67
2023/01/20 06:13:17;;;;;;;9.53;7.77;;;;;;;;;;5063908;28;20181;-67
2023/01/20 06:15:43;;;;;;;11.13;7.03;;;;;;;;;;5065314;28;20464;-67
2023/01/20 06:18:11;;;;;;;10.67;7.43;;;;;;;;;;5056179;28;20170;-67
2023/01/20 06:20:37;;;;;;;9.67;8.00;;;;;;;;;;5064268;28;20250;-67
2023/01/20 06:23:03;;;;;;;10.67;7.50;;;;;;;;;;5064030;28;20545;-67
2023/01/20 06:25:28;;;;;;;8.90;8.07;;;;;;;;;;5070813;28;20599;-66
2023/01/20 06:27:53;;;;;;;9.00;7.33;;;;;;;;;;5070169;28;20185;-69
2023/01/20 06:30:19;;;;;;;10.10;6.97;;;;;;;;;;5070134;28;20206;-67
2023/01/20 06:32:46;;;;;;;8.93;7.73;;;;;;;;;;5067122;28;20174;-66
2023/01/20 06:35:12;;;;;;;20.87;9.10;;;;;;;;;;5061034;28;20256;-67
2023/01/20 06:37:37;;;;;;;11.00;9.40;;;;;;;;;;5069744;28;20547;-67
2023/01/20 06:40:03;;;;;;;25.03;12.67;;;;;;;;;;5070129;28;20206;-67
2023/01/20 06:42:30;;;;;;;18.60;9.83;;;;;;;;;;5062328;28;20609;-67
2023/01/20 06:44:55;;;;;;;9.97;8.97;;;;;;;;;;5070708;28;20257;-66
2023/01/20 06:47:21;;;;;;;14.00;7.70;;;;;;;;;;5057250;28;20520;-66
2023/01/20 06:49:46;;;;;;;23.53;12.23;;;;;;;;;;5070210;28;20257;-65
2023/01/20 06:52:12;;;;;;;10.97;8.70;;;;;;;;;;5059869;28;20182;-66
2023/01/20 06:54:37;;;;;;;20.17;8.80;;;;;;;;;;5060303;28;20229;-67
2023/01/20 06:57:02;;;;;;;18.20;9.70;;;;;;;;;;5057262;28;20282;-67
2023/01/20 06:59:28;;;;;;;8.83;7.80;;;;;;;;;;5065714;28;20205;-67
2023/01/20 07:01:53;;;;;;;26.83;11.10;;;;;;;;;;5058262;28;20343;-67
2023/01/20 07:04:19;;;;;;;17.60;10.47;;;;;;;;;;5065561;28;20182;-67
2023/01/20 07:06:44;;;;;;;10.57;8.90;;;;;;;;;;5059619;28;20199;-67
2023/01/20 07:09:11;;;;;;;21.10;11.73;;;;;;;;;;5068406;28;20170;-67
2023/01/20 07:11:37;;;;;;;13.60;10.27;;;;;;;;;;5066178;28;20703;-68
2023/01/20 07:14:04;;;;;;;17.97;10.43;;;;;;;;;;5062493;28;20432;-67
2023/01/20 07:16:30;;;;;;;17.17;10.40;;;;;;;;;;5069809;28;20535;-66
2023/01/20 07:18:55;;;;;;;16.37;10.47;;;;;;;;;;5067491;28;20493;-65
2023/01/20 07:21:21;;;;;;;20.33;12.40;;;;;;;;;;5050826;28;20163;-68
2023/01/20 07:23:47;;;;;;;18.10;12.40;;;;;;;;;;5050887;28;20296;-68
2023/01/20 07:26:15;;;;;;;26.60;14.80;;;;;;;;;;5051017;28;20421;-66
2023/01/20 07:28:41;;;;;;;16.43;12.07;;;;;;;;;;5055539;28;20170;-66
2023/01/20 07:31:15;;;;;;;17.77;10.63;;;;;;;;;;5065264;28;21063;-67
2023/01/20 07:33:41;;;;;;;35.10;12.13;;;;;;;;;;5055431;28;20265;-66
2023/01/20 07:36:07;;;;;;;19.40;12.50;;;;;;;;;;5060830;28;20995;-67
2023/01/20 07:38:33;;;;;;;20.10;12.93;;;;;;;;;;5065336;28;20191;-67
2023/01/20 07:41:00;;;;;;;17.63;13.30;;;;;;;;;;5059880;28;20417;-67
2023/01/20 07:43:26;;;;;;;21.30;15.03;;;;;;;;;;5054244;28;20443;-66
2023/01/20 07:46:00;;;;;;;25.60;15.70;;;;;;;;;;5063793;28;20806;-66
2023/01/20 07:48:26;;;;;;;22.27;15.37;;;;;;;;;;5061073;28;20770;-67
2023/01/20 07:51:04;;;;;;;24.33;15.40;;;;;;;;;;5049074;28;20453;-65
2023/01/20 07:53:31;;;;;;;19.47;15.00;;;;;;;;;;5049055;28;20422;-68
2023/01/20 07:56:00;;;;;;;23.80;16.30;;;;;;;;;;5067158;28;20451;-66
2023/01/20 07:58:26;;;;;;;16.40;14.40;;;;;;;;;;5069693;28;20438;-67
2023/01/20 08:00:51;;;;;;;20.37;14.73;;;;;;;;;;5068249;28;20420;-67
2023/01/20 08:03:16;;;;;;;27.47;17.43;;;;;;;;;;5065936;28;20226;-67
2023/01/20 08:05:42;;;;;;;27.80;16.63;;;;;;;;;;5069998;28;20181;-67
2023/01/20 08:08:07;;;;;;;35.17;17.50;;;;;;;;;;5058147;28;20174;-67
2023/01/20 08:10:33;;;;;;;32.07;14.97;;;;;;;;;;5068095;28;20209;-67
2023/01/20 08:12:58;;;;;;;42.83;14.67;;;;;;;;;;5055062;28;20257;-67
2023/01/20 08:15:24;;;;;;;37.63;14.30;;;;;;;;;;5057385;28;20186;-69
2023/01/20 08:17:53;;;;;;;97.50;19.53;;;;;;;;;;5064133;28;20308;-65
2023/01/20 08:20:19;;;;;;;36.67;9.93;;;;;;;;;;5067233;28;20177;-67
2023/01/20 08:22:44;;;;;;;16.20;8.60;;;;;;;;;;5069101;28;20408;-68
2023/01/20 08:25:09;;;;;;;25.20;10.30;;;;;;;;;;5065780;28;20228;-68
2023/01/20 08:27:35;;;;;;;32.23;11.70;;;;;;;;;;5062841;28;20205;-65
2023/01/20 08:30:00;;;;;;;13.60;9.00;;;;;;;;;;5059597;28;20204;-66
2023/01/20 08:32:26;;;;;;;91.47;17.03;;;;;;;;;;5066762;28;20239;-66
2023/01/20 08:34:51;;;;;;;107.83;17.70;;;;;;;;;;5068062;28;20720;-67
2023/01/20 08:37:17;;;;;;;29.10;11.83;;;;;;;;;;5071589;28;20339;-67
2023/01/20 08:39:42;;;;;;;120.17;19.97;;;;;;;;;;5067107;28;21126;-66
2023/01/20 08:42:07;;;;;;;22.03;11.07;;;;;;;;;;5067374;28;20247;-65
2023/01/20 08:44:33;;;;;;;17.80;11.37;;;;;;;;;;5064772;28;20178;-66
2023/01/20 08:46:58;;;;;;;18.90;12.10;;;;;;;;;;5059072;28;20226;-66
2023/01/20 08:49:24;;;;;;;15.73;11.33;;;;;;;;;;5071183;28;20189;-67
2023/01/20 08:51:50;;;;;;;15.63;11.30;;;;;;;;;;5057978;28;20213;-67
2023/01/20 08:54:15;;;;;;;15.20;11.03;;;;;;;;;;5062058;28;20431;-67
2023/01/20 08:56:42;;;;;;;16.57;11.70;;;;;;;;;;5060818;28;20206;-67
2023/01/20 08:59:07;;;;;;;15.30;11.87;;;;;;;;;;5064018;28;20190;-66
2023/01/20 09:01:36;;;;;;;17.30;11.67;;;;;;;;;;5062400;28;20425;-66
2023/01/20 09:04:04;;;;;;;21.10;12.10;;;;;;;;;;5067994;28;20180;-68
2023/01/20 09:06:30;;;;;;;14.40;10.57;;;;;;;;;;5068600;28;20443;-69
2023/01/20 09:08:55;;;;;;;15.50;9.70;;;;;;;;;;5064524;28;20439;-67
2023/01/20 09:11:23;;;;;;;13.30;10.47;;;;;;;;;;5072311;28;20316;-70
2023/01/20 09:13:49;;;;;;;15.00;9.90;;;;;;;;;;5072742;28;20576;-68
2023/01/20 09:16:16;;;;;;;17.13;11.10;;;;;;;;;;5065908;28;20464;-67
2023/01/20 09:18:43;;;;;;;13.60;9.80;;;;;;;;;;5072345;28;20166;-67
2023/01/20 09:21:11;;;;;;;14.00;9.97;;;;;;;;;;5067825;28;20432;-67
2023/01/20 09:23:38;;;;;;;12.60;9.83;;;;;;;;;;5066106;28;20451;-68
2023/01/20 09:26:06;;;;;;;12.80;9.87;;;;;;;;;;5061308;28;20572;-68
2023/01/20 09:28:32;;;;;;;11.97;8.80;;;;;;;;;;5072069;28;21060;-69
2023/01/20 09:31:06;;;;;;;12.53;9.40;;;;;;;;;;5069248;28;20472;-68
2023/01/20 09:33:34;;;;;;;16.33;9.10;;;;;;;;;;5062521;28;20441;-66
2023/01/20 09:36:01;;;;;;;18.97;9.47;;;;;;;;;;5045209;28;20464;-67
2023/01/20 09:44:18;;;;;;;28.50;10.07;;;;;;;;;;5061977;28;20435;-69
2023/01/20 09:47:19;;;;;;;40.53;12.13;;;;;;;;;;5059571;28;20482;-67
2023/01/20 09:53:16;;;;;;;15.40;9.93;;;;;;;;;;5060091;28;20510;-68
2023/01/20 09:55:52;;;;;;;12.00;8.10;;;;;;;;;;5059978;28;20435;-68
2023/01/20 09:58:23;;;;;;;25.30;8.97;;;;;;;;;;5056237;28;20465;-65
2023/01/20 10:00:55;;;;;;;12.00;8.00;;;;;;;;;;5060901;28;20957;-69
2023/01/20 10:03:48;;;;;;;18.80;10.00;;;;;;;;;;5064499;28;20448;-67
2023/01/20 10:06:25;;;;;;;14.00;9.30;;;;;;;;;;5053274;28;20846;-68
2023/01/20 10:08:53;;;;;;;14.50;9.20;;;;;;;;;;5060620;28;20437;-68
2023/01/20 10:11:21;;;;;;;12.20;9.30;;;;;;;;;;5055178;28;20494;-68
2023/01/20 10:13:50;;;;;;;11.07;8.80;;;;;;;;;;5060450;28;20523;-68
2023/01/20 10:16:41;;;;;;;15.53;9.23;;;;;;;;;;5061518;28;21006;-67
2023/01/20 10:19:25;;;;;;;15.20;9.30;;;;;;;;;;5072105;28;20432;-66
2023/01/20 10:22:01;;;;;;;23.40;9.83;;;;;;;;;;5065252;28;20427;-66
2023/01/20 10:25:08;;;;;;;19.60;11.13;;;;;;;;;;5071721;28;20468;-66
2023/01/20 10:27:39;;;;;;;15.20;9.40;;;;;;;;;;5049119;28;20477;-66
2023/01/20 10:30:12;;;;;;;14.90;9.17;;;;;;;;;;5065711;28;21061;-66
2023/01/20 10:32:46;;;;;;;16.23;9.47;;;;;;;;;;5064543;28;20432;-66
2023/01/20 10:35:22;;;;;;;36.50;13.17;;;;;;;;;;5065154;28;20440;-65
2023/01/20 10:37:48;;;;;;;46.43;12.73;;;;;;;;;;5064986;28;20530;-66
2023/01/20 10:40:28;;;;;;;16.97;9.20;;;;;;;;;;5059948;28;20861;-66
2023/01/20 10:42:59;;;;;;;15.40;8.87;;;;;;;;;;5059660;28;20187;-67
2023/01/20 10:45:45;;;;;;;72.57;13.77;;;;;;;;;;5063112;28;20425;-66
2023/01/20 10:48:23;;;;;;;60.10;16.80;;;;;;;;;;5058177;28;20468;-67
2023/01/20 10:50:57;;;;;;;34.17;10.47;;;;;;;;;;5064975;28;20969;-64
2023/01/20 10:53:52;;;;;;;58.67;11.80;;;;;;;;;;5066158;28;20506;-67
2023/01/20 10:56:54;;;;;;;30.80;8.93;;;;;;;;;;5060090;28;20856;-65
2023/01/20 10:59:40;;;;;;;23.60;8.80;;;;;;;;;;5058763;28;20952;-66
2023/01/20 11:02:26;;;;;;;18.50;8.30;;;;;;;;;;5051500;28;20453;-66
2023/01/20 11:04:57;;;;;;;16.17;7.90;;;;;;;;;;5063873;28;20523;-66
2023/01/20 11:07:24;;;;;;;10.47;7.30;;;;;;;;;;5050137;28;20464;-66
2023/01/20 11:09:49;;;;;;;10.10;6.67;;;;;;;;;;5056193;28;20532;-66
2023/01/20 11:12:19;;;;;;;19.40;8.63;;;;;;;;;;5061259;28;20527;-66
2023/01/20 11:14:45;;;;;;;15.83;7.20;;;;;;;;;;5064529;28;20261;-66
2023/01/20 11:17:17;;;;;;;13.30;7.20;;;;;;;;;;5063088;28;20456;-65
2023/01/20 11:20:07;;;;;;;15.53;7.70;;;;;;;;;;5065278;28;20493;-67
2023/01/20 11:22:35;;;;;;;35.50;10.70;;;;;;;;;;5056275;28;20429;-67
2023/01/20 11:25:03;;;;;;;33.30;9.73;;;;;;;;;;5054094;28;20435;-67
2023/01/20 11:27:39;;;;;;;24.13;9.20;;;;;;;;;;5064061;28;20465;-67
2023/01/20 11:30:19;;;;;;;13.93;8.10;;;;;;;;;;5067577;28;20478;-65
2023/01/20 11:32:44;;;;;;;15.83;7.57;;;;;;;;;;5058122;28;20468;-67
2023/01/20 11:35:24;;;;;;;8.73;6.07;;;;;;;;;;5063496;28;20460;-66
2023/01/20 11:37:50;;;;;;;14.00;6.40;;;;;;;;;;5068061;28;20236;-67
2023/01/20 11:40:25;;;;;;;8.10;6.93;;;;;;;;;;5058725;28;20524;-66
2023/01/20 11:42:52;;;;;;;20.97;6.53;;;;;;;;;;5067470;28;20467;-66
2023/01/20 11:45:29;;;;;;;13.63;7.40;;;;;;;;;;5067339;28;20867;-66
2023/01/20 11:48:03;;;;;;;13.27;6.57;;;;;;;;;;5052826;28;20511;-66
2023/01/20 11:50:31;;;;;;;8.90;6.70;;;;;;;;;;5063247;28;20517;-67
2023/01/20 11:53:24;;;;;;;17.20;6.43;;;;;;;;;;5062968;28;20459;-69
2023/01/20 11:55:59;;;;;;;12.27;7.27;;;;;;;;;;5065495;28;20447;-67
2023/01/20 11:58:32;;;;;;;18.93;7.57;;;;;;;;;;5060617;28;20467;-66
2023/01/20 12:01:03;;;;;;;13.37;6.70;;;;;;;;;;5054646;28;20433;-67
2023/01/20 12:04:09;;;;;;;11.60;6.50;;;;;;;;;;5066173;28;20570;-66
2023/01/20 12:07:15;;;;;;;11.07;6.23;;;;;;;;;;5059146;28;20460;-66
2023/01/20 12:09:45;;;;;;;24.43;6.47;;;;;;;;;;5045437;28;20436;-67
2023/01/20 12:12:20;;;;;;;5.80;5.20;;;;;;;;;;5067423;28;20494;-65
2023/01/20 12:14:51;;;;;;;22.13;7.77;;;;;;;;;;5070006;28;20436;-67
2023/01/20 12:17:24;;;;;;;141.47;21.60;;;;;;;;;;5066127;28;20460;-66
2023/01/20 12:20:00;;;;;;;120.53;15.80;;;;;;;;;;5064417;28;20440;-68
2023/01/20 12:23:00;;;;;;;36.73;9.17;;;;;;;;;;5068136;28;20451;-66
2023/01/20 12:25:42;;;;;;;8.27;6.97;;;;;;;;;;5032527;28;20433;-66
2023/01/20 12:28:33;;;;;;;22.37;7.10;;;;;;;;;;5066096;28;20471;-66
2023/01/20 12:31:04;;;;;;;8.67;5.70;;;;;;;;;;5068150;28;20898;-67
2023/01/20 12:33:38;;;;;;;20.43;6.73;;;;;;;;;;5062525;28;20473;-66
2023/01/20 12:36:22;;;;;;;8.60;5.97;;;;;;;;;;5063148;28;20459;-67
2023/01/20 12:39:04;;;;;;;23.37;7.57;;;;;;;;;;5069221;28;20513;-67
2023/01/20 12:41:47;;;;;;;15.07;6.47;;;;;;;;;;5067852;28;20781;-66
2023/01/20 12:44:30;;;;;;;20.00;8.10;;;;;;;;;;5072334;28;20871;-66
2023/01/20 12:47:50;;;;;;;15.77;5.90;;;;;;;;;;5060675;28;21033;-67
2023/01/20 12:50:44;;;;;;;7.70;6.17;;;;;;;;;;4996124;28;20502;-66
2023/01/20 12:53:21;;;;;;;21.80;8.53;;;;;;;;;;5067293;28;20438;-65
2023/01/20 12:55:55;;;;;;;13.93;6.43;;;;;;;;;;5066933;28;20535;-66
2023/01/20 12:58:42;;;;;;;13.53;6.60;;;;;;;;;;5068958;28;20782;-67
2023/01/20 13:01:16;;;;;;;10.00;5.70;;;;;;;;;;5057664;28;20436;-67
2023/01/20 13:04:14;;;;;;;9.73;6.30;;;;;;;;;;5068540;28;20908;-68
2023/01/20 13:07:03;;;;;;;12.30;6.50;;;;;;;;;;5060220;28;20914;-68
2023/01/20 13:09:34;;;;;;;5.90;5.07;;;;;;;;;;5068690;28;20446;-68
2023/01/20 13:12:14;;;;;;;13.40;6.23;;;;;;;;;;5068160;28;20464;-67
2023/01/20 13:14:46;;;;;;;14.30;6.97;;;;;;;;;;5064837;28;20428;-67
2023/01/20 13:17:15;;;;;;;11.10;6.30;;;;;;;;;;5072134;28;20517;-65
2023/01/20 13:19:45;;;;;;;6.83;6.13;;;;;;;;;;5073541;28;20477;-68
2023/01/20 13:22:22;;;;;;;7.83;4.83;;;;;;;;;;5053250;28;20479;-66
2023/01/20 13:24:51;;;;;;;7.83;6.57;;;;;;;;;;5053559;28;20425;-67
2023/01/20 13:27:23;;;;;;;8.97;6.10;;;;;;;;;;5064025;28;21287;-67
2023/01/20 13:29:49;;;;;;;9.13;5.87;;;;;;;;;;5067520;28;20818;-67
2023/01/20 13:32:45;;;;;;;26.33;7.60;;;;;;;;;;5065736;28;20425;-68
2023/01/20 13:35:16;;;;;;;7.30;6.00;;;;;;;;;;5039862;28;20195;-67
2023/01/20 13:38:07;;;;;;;10.57;7.00;;;;;;;;;;5052910;28;20858;-67
2023/01/20 13:40:35;;;;;;;17.10;8.20;;;;;;;;;;5052227;28;20430;-68
2023/01/20 13:43:25;;;;;;;12.13;7.07;;;;;;;;;;5055084;28;20421;-67
2023/01/20 13:46:13;;;;;;;15.23;6.60;;;;;;;;;;5057153;28;20456;-68
2023/01/20 13:49:03;;;;;;;10.13;6.40;;;;;;;;;;5051843;28;20490;-66
2023/01/20 13:51:28;;;;;;;11.07;7.17;;;;;;;;;;5064046;28;20459;-67
2023/01/20 13:54:27;;;;;;;10.07;6.00;;;;;;;;;;5062468;28;20502;-68
2023/01/20 13:57:19;;;;;;;8.17;5.17;;;;;;;;;;5063130;28;20228;-67
2023/01/20 13:59:45;;;;;;;9.67;5.90;;;;;;;;;;5060336;28;20456;-69
2023/01/20 14:02:21;;;;;;;13.23;6.60;;;;;;;;;;5063500;28;20532;-67
2023/01/20 14:04:47;;;;;;;8.87;5.73;;;;;;;;;;5062379;28;20181;-65
2023/01/20 14:07:25;;;;;;;11.63;6.43;;;;;;;;;;5068538;28;20817;-65
2023/01/20 14:09:52;;;;;;;11.53;6.67;;;;;;;;;;5056958;28;20182;-67
2023/01/20 14:12:18;;;;;;;13.80;6.97;;;;;;;;;;5066138;28;20435;-69
2023/01/20 14:14:48;;;;;;;10.40;5.73;;;;;;;;;;5060740;28;20441;-67
2023/01/20 14:17:19;;;;;;;14.23;6.57;;;;;;;;;;5057071;28;20215;-67
2023/01/20 14:19:49;;;;;;;9.90;6.43;;;;;;;;;;5068197;28;20446;-67
2023/01/20 14:22:28;;;;;;;15.53;8.00;;;;;;;;;;5065840;28;21269;-66
2023/01/20 14:24:59;;;;;;;17.00;6.73;;;;;;;;;;5058452;28;20440;-68
2023/01/20 14:27:30;;;;;;;17.30;7.60;;;;;;;;;;5055567;28;20449;-66
2023/01/20 14:30:11;;;;;;;13.67;7.30;;;;;;;;;;5067796;28;20440;-68
2023/01/20 14:32:37;;;;;;;41.80;12.03;;;;;;;;;;5066897;28;20431;-68
2023/01/20 14:35:12;;;;;;;14.93;7.23;;;;;;;;;;5071108;28;20459;-67
2023/01/20 14:37:39;;;;;;;47.20;10.87;;;;;;;;;;5071421;28;20430;-68
2023/01/20 14:40:21;;;;;;;41.73;9.03;;;;;;;;;;5071539;28;20504;-67
2023/01/20 14:42:55;;;;;;;58.43;10.53;;;;;;;;;;5065619;28;20469;-67
2023/01/20 14:45:22;;;;;;;26.67;8.20;;;;;;;;;;5070796;28;20470;-67
2023/01/20 14:47:49;;;;;;;7.03;6.03;;;;;;;;;;5071442;28;20943;-67
2023/01/20 14:50:16;;;;;;;23.03;8.27;;;;;;;;;;5070992;28;20486;-67
2023/01/20 14:52:42;;;;;;;25.40;8.07;;;;;;;;;;5069844;28;20501;-68
2023/01/20 14:55:26;;;;;;;12.07;6.97;;;;;;;;;;5071117;28;20491;-68
2023/01/20 14:57:51;;;;;;;12.83;8.03;;;;;;;;;;5071150;28;20261;-68
2023/01/20 15:00:23;;;;;;;8.90;6.87;;;;;;;;;;5061926;28;20547;-66